createdAt,value
2018-08-16T00:00:33.498Z,9.27
2018-08-16T00:03:04.923Z,16.87
2018-08-16T00:05:35.996Z,9.33
2018-08-16T00:08:06.809Z,7.10
2018-08-16T00:10:42.152Z,7.80
2018-08-16T00:13:17.461Z,8.43
2018-08-16T00:15:48.462Z,7.97
2018-08-16T00:18:19.971Z,9.53
2018-08-16T00:20:55.698Z,7.10
2018-08-16T00:23:26.565Z,7.03
2018-08-16T00:25:57.728Z,6.93
2018-08-16T00:28:28.516Z,7.20
2018-08-16T00:30:59.903Z,6.40
2018-08-16T00:33:32.404Z,7.70
2018-08-16T00:36:03.405Z,6.77
2018-08-16T00:38:34.150Z,7.77
2018-08-16T00:41:03.951Z,10.20
2018-08-16T00:43:34.700Z,7.70
2018-08-16T00:46:05.599Z,6.90
2018-08-16T00:48:36.475Z,7.30
2018-08-16T00:51:08.749Z,8.43
2018-08-16T00:53:39.478Z,7.80
2018-08-16T00:56:10.604Z,7.13
2018-08-16T00:58:42.831Z,7.10
2018-08-16T01:01:15.953Z,7.20
2018-08-16T01:03:47.483Z,9.77
2018-08-16T01:06:18.611Z,7.10
2018-08-16T01:08:49.443Z,7.93
2018-08-16T01:11:20.987Z,7.93
2018-08-16T01:13:52.354Z,7.80
2018-08-16T01:16:23.232Z,11.37
2018-08-16T01:18:54.305Z,8.30
2018-08-16T01:21:26.534Z,9.43
2018-08-16T01:23:57.967Z,8.57
2018-08-16T01:26:28.717Z,10.50
2018-08-16T01:28:59.753Z,7.60
2018-08-16T01:31:30.855Z,10.03
2018-08-16T01:34:01.889Z,8.67
2018-08-16T01:36:32.773Z,8.17
2018-08-16T01:39:03.874Z,7.23
2018-08-16T01:41:36.235Z,11.90
2018-08-16T01:44:07.351Z,6.97
2018-08-16T01:46:38.475Z,11.90
2018-08-16T01:52:12.214Z,12.37
2018-08-16T01:54:44.712Z,7.10
2018-08-16T01:57:15.566Z,8.30
2018-08-16T01:59:44.168Z,7.40
2018-08-16T02:02:14.849Z,8.67
2018-08-16T02:04:46.081Z,7.47
2018-08-16T02:07:16.955Z,7.03
2018-08-16T02:09:47.914Z,6.53
2018-08-16T02:12:18.598Z,6.37
2018-08-16T02:14:49.881Z,9.40
2018-08-16T02:17:22.513Z,10.50
2018-08-16T02:19:54.040Z,7.83
2018-08-16T02:22:27.558Z,8.33
2018-08-16T02:24:58.893Z,7.60
2018-08-16T02:27:29.991Z,9.60
2018-08-16T02:30:01.318Z,7.17
2018-08-16T02:32:32.391Z,7.20
2018-08-16T02:35:03.369Z,9.00
2018-08-16T02:37:34.416Z,8.43
2018-08-16T02:40:06.156Z,7.83
2018-08-16T02:42:36.843Z,7.47
2018-08-16T02:45:07.899Z,8.13
2018-08-16T02:47:38.486Z,9.17
2018-08-16T02:50:09.947Z,7.63
2018-08-16T02:52:40.734Z,6.87
2018-08-16T02:55:13.174Z,9.20
2018-08-16T02:57:43.984Z,8.57
2018-08-16T03:00:15.087Z,7.70
2018-08-16T03:02:46.437Z,7.97
2018-08-16T03:05:18.061Z,7.90
2018-08-16T03:07:53.592Z,8.30
2018-08-16T03:10:25.839Z,9.00
2018-08-16T03:12:56.353Z,10.17
2018-08-16T03:15:28.114Z,10.50
2018-08-16T03:17:59.334Z,8.23
2018-08-16T03:20:32.749Z,8.20
2018-08-16T03:23:03.894Z,9.77
2018-08-16T03:25:36.304Z,8.43
2018-08-16T03:28:05.004Z,15.33
2018-08-16T03:30:35.636Z,9.10
2018-08-16T03:33:07.863Z,10.70
2018-08-16T03:35:38.675Z,11.27
2018-08-16T03:38:09.868Z,10.50
2018-08-16T03:40:40.550Z,10.43
2018-08-16T03:43:13.434Z,14.03
2018-08-16T03:45:44.228Z,7.53
2018-08-16T03:48:15.351Z,8.57
2018-08-16T03:50:45.957Z,10.50
2018-08-16T03:53:17.176Z,10.73
2018-08-16T03:55:48.046Z,11.90
2018-08-16T03:58:24.067Z,12.40
2018-08-16T04:00:55.080Z,10.00
2018-08-16T04:03:27.836Z,11.33
2018-08-16T04:05:58.590Z,13.60
2018-08-16T04:08:29.619Z,12.23
2018-08-16T04:11:00.602Z,13.40
2018-08-16T04:13:32.372Z,13.30
2018-08-16T04:16:04.102Z,15.23
2018-08-16T04:18:34.739Z,12.80
2018-08-16T04:21:05.570Z,10.40
2018-08-16T04:23:36.585Z,13.57
2018-08-16T04:26:07.317Z,12.40
2018-08-16T04:28:39.692Z,16.33
2018-08-16T04:31:11.135Z,12.30
2018-08-16T04:33:42.244Z,18.10
2018-08-16T04:36:10.998Z,9.93
2018-08-16T04:38:39.644Z,12.13
2018-08-16T04:41:08.584Z,12.40
2018-08-16T04:43:38.029Z,10.77
2018-08-16T04:46:06.786Z,9.77
2018-08-16T04:48:35.406Z,14.43
2018-08-16T04:51:04.030Z,9.70
2018-08-16T04:53:32.719Z,11.30
2018-08-16T04:56:01.369Z,10.07
2018-08-16T04:58:30.261Z,14.90
2018-08-16T05:00:58.860Z,10.80
2018-08-16T05:03:29.889Z,14.90
2018-08-16T05:05:58.621Z,11.67
2018-08-16T05:08:27.302Z,12.47
2018-08-16T05:10:56.561Z,14.43
2018-08-16T05:13:25.823Z,10.80
2018-08-16T05:15:54.440Z,11.03
2018-08-16T05:18:24.152Z,16.13
2018-08-16T05:20:53.066Z,20.70
2018-08-16T05:23:22.253Z,15.00
2018-08-16T05:25:51.565Z,15.23
2018-08-16T05:28:20.232Z,15.43
2018-08-16T05:30:48.948Z,11.33
2018-08-16T05:33:17.652Z,20.40
2018-08-16T05:35:46.302Z,19.97
2018-08-16T05:38:15.028Z,22.57
2018-08-16T05:40:43.696Z,18.87
2018-08-16T05:43:12.412Z,17.00
2018-08-16T05:45:41.161Z,17.00
2018-08-16T05:48:10.010Z,16.97
2018-08-16T05:50:40.572Z,12.03
2018-08-16T05:53:10.736Z,15.93
2018-08-16T05:55:39.397Z,13.37
2018-08-16T05:58:08.550Z,14.10
2018-08-16T06:00:37.188Z,11.83
2018-08-16T06:03:05.964Z,16.70
2018-08-16T06:05:34.605Z,15.30
2018-08-16T06:08:03.903Z,12.23
2018-08-16T06:10:32.522Z,13.43
2018-08-16T06:13:01.240Z,12.90
2018-08-16T06:15:30.780Z,13.23
2018-08-16T06:17:59.494Z,14.63
2018-08-16T06:20:28.836Z,13.47
2018-08-16T06:22:57.394Z,11.23
2018-08-16T06:25:26.010Z,11.50
2018-08-16T06:27:54.821Z,11.17
2018-08-16T06:30:23.715Z,12.57
2018-08-16T06:32:52.881Z,13.10
2018-08-16T06:35:21.586Z,18.73
2018-08-16T06:37:50.367Z,10.33
2018-08-16T06:40:19.565Z,13.30
2018-08-16T06:42:48.874Z,10.93
2018-08-16T06:45:17.524Z,10.50
2018-08-16T06:47:46.297Z,11.17
2018-08-16T06:50:14.995Z,10.67
2018-08-16T06:52:44.234Z,10.70
2018-08-16T06:55:13.071Z,10.40
2018-08-16T06:57:41.706Z,11.20
2018-08-16T07:00:14.772Z,10.97
2018-08-16T07:02:43.977Z,12.90
2018-08-16T07:05:13.005Z,12.53
2018-08-16T07:07:41.677Z,11.23
2018-08-16T07:10:11.950Z,12.03
2018-08-16T07:12:40.663Z,10.10
2018-08-16T07:15:13.069Z,15.20
2018-08-16T07:17:42.199Z,12.00
2018-08-16T07:20:10.880Z,8.73
2018-08-16T07:22:39.576Z,11.83
2018-08-16T07:25:09.483Z,11.63
2018-08-16T07:27:38.112Z,11.40
2018-08-16T07:30:08.630Z,10.83
2018-08-16T07:32:37.215Z,9.73
2018-08-16T07:35:07.060Z,9.50
2018-08-16T07:37:35.863Z,9.63
2018-08-16T07:40:05.117Z,11.93
2018-08-16T07:42:33.856Z,8.73
2018-08-16T07:45:02.501Z,18.43
2018-08-16T07:47:31.162Z,9.33
2018-08-16T07:49:59.777Z,10.63
2018-08-16T07:52:28.373Z,11.63
2018-08-16T07:54:57.036Z,9.40
2018-08-16T07:57:26.240Z,12.43
2018-08-16T07:59:54.918Z,10.10
2018-08-16T08:02:23.615Z,7.80
2018-08-16T08:04:52.253Z,8.03
2018-08-16T08:07:20.962Z,9.87
2018-08-16T08:09:50.333Z,7.03
2018-08-16T08:12:20.600Z,6.73
2018-08-16T08:14:49.365Z,7.17
2018-08-16T08:17:17.947Z,6.40
2018-08-16T08:19:47.753Z,6.20
2018-08-16T08:22:16.458Z,8.73
2018-08-16T08:24:45.100Z,8.70
2018-08-16T08:27:13.728Z,12.27
2018-08-16T08:29:42.342Z,8.00
2018-08-16T08:32:11.678Z,7.40
2018-08-16T08:34:40.623Z,7.13
2018-08-16T08:37:20.418Z,8.93
2018-08-16T08:39:49.055Z,5.77
2018-08-16T08:42:17.777Z,6.30
2018-08-16T08:44:46.415Z,6.83
2018-08-16T08:47:15.360Z,8.17
2018-08-16T08:49:43.981Z,6.00
2018-08-16T08:52:13.267Z,6.10
2018-08-16T08:54:55.219Z,5.27
2018-08-16T08:57:36.037Z,6.40
2018-08-16T09:00:05.855Z,6.00
2018-08-16T09:02:34.551Z,10.63
2018-08-16T09:05:03.270Z,5.23
2018-08-16T09:07:33.111Z,7.87
2018-08-16T09:11:15.661Z,9.30
2018-08-16T09:13:56.435Z,5.27
2018-08-16T09:16:27.223Z,7.17
2018-08-16T09:18:56.212Z,4.57
2018-08-16T09:21:24.915Z,4.70
2018-08-16T09:23:53.622Z,4.30
2018-08-16T09:26:28.242Z,5.53
2018-08-16T09:28:58.214Z,5.57
2018-08-16T09:31:38.101Z,5.53
2018-08-16T09:34:16.327Z,4.33
2018-08-16T09:36:44.975Z,4.70
2018-08-16T09:39:13.812Z,6.93
2018-08-16T09:41:43.134Z,4.50
2018-08-16T09:44:11.803Z,3.90
2018-08-16T09:46:54.548Z,3.90
2018-08-16T09:49:23.263Z,3.50
2018-08-16T09:51:51.880Z,3.20
2018-08-16T09:54:20.628Z,3.80
2018-08-16T09:56:49.598Z,3.40
2018-08-16T09:59:18.416Z,3.80
2018-08-16T10:01:47.109Z,3.23
2018-08-16T10:04:15.912Z,3.23
2018-08-16T10:06:44.905Z,3.50
2018-08-16T10:09:16.649Z,7.60
2018-08-16T10:11:45.928Z,4.13
2018-08-16T10:14:14.824Z,3.43
2018-08-16T10:16:43.480Z,4.10
2018-08-16T10:19:12.289Z,4.93
2018-08-16T10:21:41.164Z,3.90
2018-08-16T10:24:09.857Z,3.33
2018-08-16T10:26:38.551Z,3.40
2018-08-16T10:29:07.875Z,3.73
2018-08-16T10:31:37.205Z,3.27
2018-08-16T10:34:05.892Z,2.63
2018-08-16T10:36:34.705Z,3.27
2018-08-16T10:39:04.873Z,3.10
2018-08-16T10:41:33.602Z,3.47
2018-08-16T10:44:02.832Z,3.50
2018-08-16T10:46:31.541Z,3.57
2018-08-16T10:49:00.179Z,3.60
2018-08-16T10:51:28.855Z,4.40
2018-08-16T10:53:57.598Z,3.33
2018-08-16T10:56:26.258Z,3.40
2018-08-16T10:58:55.185Z,3.10
2018-08-16T11:01:23.912Z,4.40
2018-08-16T11:03:52.588Z,3.40
2018-08-16T11:06:21.420Z,3.53
2018-08-16T11:08:50.121Z,3.40
2018-08-16T11:11:22.964Z,3.60
2018-08-16T11:13:51.600Z,5.17
2018-08-16T11:16:20.901Z,3.67
2018-08-16T11:18:50.358Z,3.70
2018-08-16T11:21:19.934Z,3.27
2018-08-16T11:23:48.597Z,3.90
2018-08-16T11:26:17.294Z,3.50
2018-08-16T11:28:45.892Z,3.70
2018-08-16T11:31:14.734Z,3.80
2018-08-16T11:33:43.359Z,2.80
2018-08-16T11:36:12.000Z,3.30
2018-08-16T11:38:40.657Z,4.10
2018-08-16T11:41:09.746Z,3.60
2018-08-16T11:43:39.285Z,2.97
2018-08-16T11:46:08.738Z,4.00
2018-08-16T11:48:37.387Z,3.50
2018-08-16T11:51:06.008Z,3.10
2018-08-16T11:53:34.658Z,3.63
2018-08-16T11:56:03.280Z,3.07
2018-08-16T11:58:32.066Z,3.73
2018-08-16T12:01:00.663Z,5.27
2018-08-16T12:03:30.350Z,3.20
2018-08-16T12:05:59.696Z,3.97
2018-08-16T12:08:30.748Z,3.60
2018-08-16T12:10:59.336Z,4.27
2018-08-16T12:13:28.068Z,5.00
2018-08-16T12:15:56.657Z,4.10
2018-08-16T12:18:29.775Z,3.07
2018-08-16T12:20:58.418Z,3.10
2018-08-16T12:23:27.017Z,4.43
2018-08-16T12:25:55.708Z,4.43
2018-08-16T12:28:24.358Z,4.07
2018-08-16T12:30:53.003Z,3.20
2018-08-16T12:33:22.360Z,3.87
2018-08-16T12:35:51.044Z,3.30
2018-08-16T12:38:19.677Z,3.50
2018-08-16T12:40:50.109Z,3.13
2018-08-16T12:43:16.924Z,3.30
2018-08-16T12:45:45.591Z,3.77
2018-08-16T12:48:14.200Z,3.33
2018-08-16T12:50:42.897Z,3.20
2018-08-16T12:53:11.490Z,7.37
2018-08-16T12:55:40.156Z,2.90
2018-08-16T12:58:08.893Z,3.23
2018-08-16T13:00:37.656Z,2.60
2018-08-16T13:03:06.287Z,4.40
2018-08-16T13:05:34.945Z,2.63
2018-08-16T13:08:03.623Z,4.50
2018-08-16T13:10:32.248Z,2.57
2018-08-16T13:13:00.847Z,2.80
2018-08-16T13:15:29.491Z,3.93
2018-08-16T13:17:58.144Z,3.63
2018-08-16T13:20:27.405Z,4.17
2018-08-16T13:22:56.030Z,3.27
2018-08-16T13:25:24.707Z,2.60
2018-08-16T13:27:53.389Z,2.80
2018-08-16T13:30:22.786Z,4.97
2018-08-16T13:32:51.455Z,3.40
2018-08-16T13:35:20.057Z,3.07
2018-08-16T13:37:48.679Z,3.77
2018-08-16T13:40:17.343Z,4.53
2018-08-16T13:42:46.053Z,3.20
2018-08-16T13:45:14.623Z,2.80
2018-08-16T13:47:43.295Z,3.27
2018-08-16T13:50:12.603Z,3.30
2018-08-16T13:52:41.344Z,3.07
2018-08-16T13:55:10.075Z,8.37
2018-08-16T13:57:38.779Z,2.97
2018-08-16T14:00:08.421Z,2.80
2018-08-16T14:02:37.112Z,3.07
2018-08-16T14:05:05.909Z,2.93
2018-08-16T14:07:35.479Z,5.10
2018-08-16T14:10:04.358Z,2.90
2018-08-16T14:12:33.025Z,3.20
2018-08-16T14:15:01.655Z,2.80
2018-08-16T14:17:31.096Z,3.60
2018-08-16T14:20:00.417Z,2.57
2018-08-16T14:22:29.731Z,2.80
2018-08-16T14:24:58.353Z,3.23
2018-08-16T14:27:27.112Z,3.33
2018-08-16T14:29:55.734Z,3.23
2018-08-16T14:32:24.343Z,3.23
2018-08-16T14:34:53.525Z,3.80
2018-08-16T14:37:22.168Z,2.80
2018-08-16T14:39:51.540Z,3.23
2018-08-16T14:42:20.235Z,2.70
2018-08-16T14:44:48.861Z,3.03
2018-08-16T14:47:18.192Z,3.20
2018-08-16T14:49:46.924Z,3.13
2018-08-16T14:52:16.113Z,3.40
2018-08-16T14:54:45.500Z,2.93
2018-08-16T14:57:14.126Z,2.83
2018-08-16T14:59:42.793Z,3.50
2018-08-16T15:02:11.491Z,2.60
2018-08-16T15:04:40.085Z,2.63
2018-08-16T15:07:08.858Z,3.83
2018-08-16T15:09:37.512Z,3.03
2018-08-16T15:12:06.407Z,3.07
2018-08-16T15:14:35.313Z,4.70
2018-08-16T15:17:03.925Z,3.30
2018-08-16T15:19:32.579Z,3.03
2018-08-16T15:22:01.385Z,6.10
2018-08-16T15:24:30.696Z,3.30
2018-08-16T15:26:59.350Z,3.00
2018-08-16T15:29:28.109Z,2.97
2018-08-16T15:31:56.713Z,3.50
2018-08-16T15:34:25.421Z,3.03
2018-08-16T15:36:54.059Z,3.47
2018-08-16T15:39:22.965Z,3.63
2018-08-16T15:41:52.380Z,2.70
2018-08-16T15:44:21.931Z,3.30
2018-08-16T15:46:50.845Z,3.20
2018-08-16T15:49:19.634Z,5.80
2018-08-16T15:51:48.252Z,4.23
2018-08-16T15:54:16.854Z,3.20
2018-08-16T15:56:47.030Z,3.97
2018-08-16T15:59:15.697Z,3.03
2018-08-16T16:01:44.297Z,3.67
2018-08-16T16:04:13.646Z,2.87
2018-08-16T16:06:42.390Z,3.83
2018-08-16T16:09:11.574Z,2.90
2018-08-16T16:11:40.739Z,10.00
2018-08-16T16:14:09.492Z,2.83
2018-08-16T16:16:38.275Z,3.10
2018-08-16T16:19:07.599Z,5.20
2018-08-16T16:21:37.309Z,3.60
2018-08-16T16:24:07.004Z,3.27
2018-08-16T16:26:36.718Z,3.23
2018-08-16T16:29:06.102Z,3.00
2018-08-16T16:31:36.011Z,3.40
2018-08-16T16:34:07.272Z,3.53
2018-08-16T16:36:37.230Z,3.00
2018-08-16T16:39:09.232Z,2.97
2018-08-16T16:41:38.711Z,3.30
2018-08-16T16:44:15.968Z,4.03
2018-08-16T16:46:45.394Z,3.20
2018-08-16T16:49:16.147Z,3.97
2018-08-16T16:51:45.167Z,2.77
2018-08-16T16:54:13.882Z,3.30
2018-08-16T16:56:42.746Z,3.00
2018-08-16T16:59:11.509Z,4.23
2018-08-16T17:01:40.434Z,3.73
2018-08-16T17:04:10.068Z,3.60
2018-08-16T17:06:38.844Z,2.93
2018-08-16T17:09:11.244Z,2.83
2018-08-16T17:11:40.378Z,4.10
2018-08-16T17:14:09.544Z,3.20
2018-08-16T17:16:38.840Z,3.50
2018-08-16T17:19:08.269Z,4.93
2018-08-16T17:21:36.974Z,3.17
2018-08-16T17:24:06.761Z,3.23
2018-08-16T17:26:35.436Z,3.33
2018-08-16T17:29:04.909Z,3.67
2018-08-16T17:31:34.178Z,3.00
2018-08-16T17:34:03.378Z,6.63
2018-08-16T17:36:32.053Z,3.40
2018-08-16T17:39:00.770Z,5.13
2018-08-16T17:41:29.451Z,3.83
2018-08-16T17:43:58.066Z,7.20
2018-08-16T17:46:26.653Z,5.60
2018-08-16T17:48:55.305Z,17.57
2018-08-16T17:51:24.392Z,7.40
2018-08-16T17:53:53.323Z,7.10
2018-08-16T17:56:21.964Z,3.50
2018-08-16T17:58:50.799Z,4.47
2018-08-16T18:01:20.107Z,3.87
2018-08-16T18:03:48.811Z,3.67
2018-08-16T18:06:17.451Z,3.80
2018-08-16T18:08:46.118Z,3.60
2018-08-16T18:11:14.892Z,4.77
2018-08-16T18:13:43.678Z,11.30
2018-08-16T18:16:12.332Z,3.87
2018-08-16T18:18:42.235Z,5.60
2018-08-16T18:21:12.575Z,8.80
2018-08-16T18:23:42.019Z,3.53
2018-08-16T18:26:10.748Z,4.80
2018-08-16T18:28:39.512Z,6.43
2018-08-16T18:31:08.282Z,14.40
2018-08-16T18:33:37.126Z,5.80
2018-08-16T18:36:06.021Z,6.50
2018-08-16T18:38:34.651Z,4.70
2018-08-16T18:41:03.386Z,6.40
2018-08-16T18:43:32.020Z,11.07
2018-08-16T18:46:01.640Z,7.20
2018-08-16T18:48:30.253Z,5.67
2018-08-16T18:50:58.960Z,6.80
2018-08-16T18:53:27.726Z,5.20
2018-08-16T18:55:56.379Z,3.53
2018-08-16T18:58:25.103Z,5.20
2018-08-16T19:00:53.826Z,8.53
2018-08-16T19:03:22.592Z,4.77
2018-08-16T19:05:51.345Z,6.37
2018-08-16T19:08:19.984Z,8.33
2018-08-16T19:10:48.669Z,6.73
2018-08-16T19:13:17.380Z,8.07
2018-08-16T19:15:46.420Z,5.87
2018-08-16T19:18:16.778Z,6.93
2018-08-16T19:20:46.656Z,5.00
2018-08-16T19:23:15.416Z,8.30
2018-08-16T19:25:45.074Z,6.67
2018-08-16T19:28:14.990Z,6.30
2018-08-16T19:30:43.720Z,5.90
2018-08-16T19:33:12.405Z,7.47
2018-08-16T19:35:41.071Z,5.87
2018-08-16T19:38:10.355Z,7.73
2018-08-16T19:40:38.985Z,10.60
2018-08-16T19:43:08.032Z,5.63
2018-08-16T19:45:36.946Z,9.03
2018-08-16T19:48:06.528Z,7.80
2018-08-16T19:50:37.044Z,7.87
2018-08-16T19:53:05.853Z,8.73
2018-08-16T19:55:34.493Z,6.50
2018-08-16T19:58:04.208Z,7.47
2018-08-16T20:00:33.059Z,4.97
2018-08-16T20:03:02.163Z,5.57
2018-08-16T20:05:30.832Z,8.40
2018-08-16T20:08:06.895Z,6.13
2018-08-16T20:10:35.581Z,6.90
2018-08-16T20:13:04.344Z,7.20
2018-08-16T20:15:33.519Z,8.73
2018-08-16T20:18:02.371Z,11.80
2018-08-16T20:20:31.042Z,6.87
2018-08-16T20:22:59.909Z,7.43
2018-08-16T20:25:28.604Z,6.00
2018-08-16T20:27:57.942Z,6.60
2018-08-16T20:30:26.764Z,7.03
2018-08-16T20:32:55.588Z,8.50
2018-08-16T20:35:26.325Z,7.67
2018-08-16T20:37:55.083Z,11.83
2018-08-16T20:40:23.861Z,7.30
2018-08-16T20:42:53.207Z,5.83
2018-08-16T20:45:21.874Z,5.90
2018-08-16T20:47:50.644Z,6.27
2018-08-16T20:50:19.300Z,7.37
2018-08-16T20:52:48.044Z,7.60
2018-08-16T20:55:16.735Z,11.40
2018-08-16T20:57:45.346Z,8.87
2018-08-16T21:00:14.821Z,7.40
2018-08-16T21:02:43.758Z,9.80
2018-08-16T21:05:13.231Z,9.30
2018-08-16T21:07:42.069Z,11.73
2018-08-16T21:10:11.645Z,9.30
2018-08-16T21:12:40.391Z,6.20
2018-08-16T21:15:09.425Z,8.30
2018-08-16T21:17:38.146Z,6.83
2018-08-16T21:20:06.862Z,7.73
2018-08-16T21:22:35.521Z,9.27
2018-08-16T21:25:04.238Z,9.40
2018-08-16T21:27:33.707Z,5.23
2018-08-16T21:30:02.424Z,5.60
2018-08-16T21:32:31.146Z,8.10
2018-08-16T21:34:59.995Z,8.23
2018-08-16T21:37:29.330Z,7.30
2018-08-16T21:39:58.046Z,7.20
2018-08-16T21:42:26.788Z,10.70
2018-08-16T21:44:55.449Z,8.90
2018-08-16T21:47:24.084Z,7.20
2018-08-16T21:49:52.679Z,7.03
2018-08-16T21:52:21.454Z,7.43
2018-08-16T21:54:50.122Z,6.50
2018-08-16T21:57:18.843Z,9.50
2018-08-16T21:59:47.602Z,9.70
2018-08-16T22:02:17.071Z,9.17
2018-08-16T22:04:45.710Z,10.03
2018-08-16T22:07:31.849Z,6.93
2018-08-16T22:10:00.742Z,8.20
2018-08-16T22:12:29.384Z,7.60
2018-08-16T22:14:57.993Z,6.10
2018-08-16T22:17:26.587Z,6.03
2018-08-16T22:19:55.228Z,6.93
2018-08-16T22:22:24.463Z,8.20
2018-08-16T22:24:53.765Z,11.10
2018-08-16T22:27:23.827Z,6.87
2018-08-16T22:29:52.445Z,9.80
2018-08-16T22:32:21.246Z,9.90
2018-08-16T22:34:54.100Z,6.67
2018-08-16T22:37:22.749Z,7.77
2018-08-16T22:39:51.411Z,6.97
2018-08-16T22:42:20.180Z,6.87
2018-08-16T22:44:48.895Z,9.33
2018-08-16T22:47:17.552Z,7.90
2018-08-16T22:49:46.853Z,7.70
2018-08-16T22:52:18.081Z,8.90
2018-08-16T22:54:46.787Z,6.43
2018-08-16T22:57:15.472Z,11.93
2018-08-16T22:59:44.084Z,7.10
2018-08-16T23:02:12.674Z,6.23
2018-08-16T23:04:41.311Z,8.57
2018-08-16T23:07:10.886Z,6.50
2018-08-16T23:09:39.619Z,6.63
2018-08-16T23:12:08.157Z,6.67
2018-08-16T23:14:37.117Z,9.27
2018-08-16T23:17:05.768Z,8.37
2018-08-16T23:19:35.254Z,7.97
2018-08-16T23:22:03.986Z,8.90
2018-08-16T23:24:32.624Z,13.07
2018-08-16T23:27:01.809Z,7.90
2018-08-16T23:29:31.590Z,6.33
2018-08-16T23:32:00.351Z,8.50
2018-08-16T23:34:29.101Z,5.43
2018-08-16T23:36:57.793Z,8.50
2018-08-16T23:39:26.853Z,6.20
2018-08-16T23:41:55.761Z,7.67
2018-08-16T23:44:25.143Z,10.73
2018-08-16T23:46:53.740Z,10.80
2018-08-16T23:49:22.465Z,7.70
2018-08-16T23:51:51.738Z,7.50
2018-08-16T23:54:20.351Z,7.80
2018-08-16T23:56:48.985Z,5.77
2018-08-16T23:59:17.678Z,5.70
